Terminal Aerodrome Forecast
Issued by NWS

Home | Current Version | Previous Version | Text Only | Print | Product List | Glossary On
Versions: 1 2 3 4 5 6 7 8 9 10 11 12 13 14 15 16 17 18 19
000
FTUS46 KEKA 220543
TAFCEC
TAF
KCEC 220543Z 2206/2306 23006KT 1 1/2SM -RA BR OVC004
     FM220700 21004KT 4SM -RA BKN004 OVC007
     FM221500 09002KT 5SM BR OVC007
     FM222100 30005KT 5SM BR OVC010
     FM230300 09004KT P6SM BKN015=

USA.gov is the U.S. government's official web portal to all federal, state and local government web resources and services.